Time;durP1;ratioP1;P1;durP2;ratioP2;P2;SDS_P1;SDS_P2;PMS_P1;PMS_P2;Temp;Humidity;BMP_temperature;BMP_pressure;BME280_temperature;BME280_humidity;BME280_pressure;Samples;Min_cycle;Max_cycle;Signal;HPM_P1;HPM_P2
2021/04/02 00:01:43;;;;;;;5.75;2.55;;;;;;;11.59;48.83;100872.44;5008500;28;20034;-71
2021/04/02 00:04:08;;;;;;;4.00;2.20;;;;;;;11.51;49.30;100875.81;5008962;28;20061;-73
2021/04/02 00:06:33;;;;;;;6.22;2.72;;;;;;;11.41;49.99;100877.69;5007025;28;20065;-71
2021/04/02 00:08:59;;;;;;;4.25;2.45;;;;;;;11.41;49.47;100885.63;5006806;28;20046;-72
2021/04/02 00:11:24;;;;;;;7.70;2.92;;;;;;;11.34;49.63;100881.91;5002927;28;20041;-69
2021/04/02 00:13:49;;;;;;;7.38;2.60;;;;;;;11.19;50.00;100884.22;5010091;28;20036;-70
2021/04/02 00:16:18;;;;;;;4.55;2.30;;;;;;;11.09;50.57;100876.34;5011167;28;20125;-70
2021/04/02 00:18:43;;;;;;;9.13;3.15;;;;;;;11.16;49.11;100877.41;5011899;28;20038;-71
2021/04/02 00:21:11;;;;;;;5.15;2.63;;;;;;;11.12;48.37;100878.69;5007440;28;20042;-70
2021/04/02 00:23:38;;;;;;;9.70;2.83;;;;;;;10.94;48.54;100875.13;5011266;28;20460;-70
2021/04/02 00:26:12;;;;;;;4.60;2.42;;;;;;;10.84;48.52;100881.31;5009473;28;20037;-71
2021/04/02 00:28:37;;;;;;;5.88;2.55;;;;;;;10.78;48.89;100896.94;4994240;28;20506;-71
2021/04/02 00:31:03;;;;;;;5.85;2.78;;;;;;;10.78;48.23;100899.56;5008465;28;20061;-70
2021/04/02 00:33:31;;;;;;;3.85;2.03;;;;;;;10.67;48.83;100897.91;5011139;28;20046;-71
2021/04/02 00:35:58;;;;;;;5.28;2.65;;;;;;;10.65;48.41;100893.75;5011704;28;20046;-70
2021/04/02 00:38:23;;;;;;;6.85;2.42;;;;;;;10.45;49.01;100891.16;5003803;28;20054;-71
2021/04/02 00:40:53;;;;;;;3.65;2.33;;;;;;;10.47;48.83;100891.84;5010922;28;20057;-71
2021/04/02 00:43:26;;;;;;;4.78;2.10;;;;;;;10.39;49.01;100887.28;5006377;28;20402;-70
2021/04/02 00:45:51;;;;;;;4.57;2.33;;;;;;;10.36;48.60;100884.91;4993096;28;20034;-71
2021/04/02 00:48:16;;;;;;;3.63;2.00;;;;;;;10.30;49.08;100885.47;5010308;28;20099;-71
2021/04/02 00:50:57;;;;;;;4.68;2.03;;;;;;;10.32;48.45;100888.81;5011370;28;20042;-72
2021/04/02 00:53:31;;;;;;;6.18;2.25;;;;;;;10.24;48.71;100880.72;4999060;28;20030;-70
2021/04/02 00:55:59;;;;;;;5.65;2.70;;;;;;;10.24;48.64;100896.56;5009479;28;20134;-72
2021/04/02 00:58:28;;;;;;;5.72;2.50;;;;;;;10.14;49.02;100893.94;5006119;28;20054;-72
2021/04/02 01:00:54;;;;;;;8.70;2.50;;;;;;;10.13;49.04;100900.22;5006300;28;20030;-72
2021/04/02 01:03:20;;;;;;;5.38;2.28;;;;;;;10.09;49.19;100892.69;5011220;28;20041;-71
2021/04/02 01:05:47;;;;;;;5.03;2.30;;;;;;;10.14;48.39;100895.75;5010853;28;20042;-70
2021/04/02 01:08:17;;;;;;;4.55;2.17;;;;;;;10.05;48.71;100891.31;5003254;28;20057;-71
2021/04/02 01:10:44;;;;;;;5.65;2.30;;;;;;;9.92;50.45;100889.78;5004004;28;20173;-70
2021/04/02 01:13:19;;;;;;;6.05;2.58;;;;;;;9.85;49.60;100899.22;4993048;28;20030;-72
2021/04/02 01:15:53;;;;;;;6.97;2.70;;;;;;;9.83;49.54;100890.59;5011017;28;20076;-72
2021/04/02 01:18:55;;;;;;;4.63;2.25;;;;;;;9.74;50.17;100888.78;5009152;28;20406;-70
2021/04/02 01:21:34;;;;;;;5.50;2.53;;;;;;;9.68;50.02;100894.63;5004677;28;20100;-70
2021/04/02 01:24:00;;;;;;;6.95;2.53;;;;;;;9.63;49.64;100904.75;4993116;28;20049;-70
2021/04/02 01:26:46;;;;;;;7.50;2.50;;;;;;;9.54;50.10;100901.97;4992176;28;20030;-73
2021/04/02 01:29:29;;;;;;;6.40;2.60;;;;;;;9.46;48.55;100903.59;4993318;28;20265;-71
2021/04/02 01:31:58;;;;;;;5.03;2.47;;;;;;;9.45;47.47;100910.69;5007234;28;20061;-72
2021/04/02 01:34:35;;;;;;;5.18;2.50;;;;;;;9.45;47.12;100908.03;5009138;28;20273;-70
2021/04/02 01:37:08;;;;;;;3.67;2.20;;;;;;;9.39;47.57;100919.16;5009634;28;20034;-71
2021/04/02 01:39:38;;;;;;;5.15;2.60;;;;;;;9.32;47.62;100918.03;5006591;28;20037;-70
2021/04/02 01:42:05;;;;;;;5.07;1.73;;;;;;;9.24;47.82;100921.31;5002905;28;20056;-70
2021/04/02 01:44:35;;;;;;;3.80;1.80;;;;;;;9.17;48.21;100914.91;5009446;28;20042;-70
2021/04/02 01:47:01;;;;;;;4.32;1.83;;;;;;;9.14;48.24;100918.63;5002658;28;20505;-71
2021/04/02 01:49:30;;;;;;;4.00;2.00;;;;;;;9.08;48.49;100921.81;4992436;28;20083;-71
2021/04/02 01:51:56;;;;;;;3.85;1.80;;;;;;;9.02;48.46;100924.97;5009632;28;20115;-70
2021/04/02 01:54:22;;;;;;;6.25;2.38;;;;;;;8.97;49.41;100929.81;5009489;28;20093;-70
2021/04/02 01:56:50;;;;;;;4.95;1.90;;;;;;;8.87;51.45;100932.41;5001965;28;20178;-70
2021/04/02 01:59:17;;;;;;;2.80;1.73;;;;;;;8.86;50.35;100927.25;4984774;28;20037;-70
2021/04/02 02:01:43;;;;;;;4.40;2.00;;;;;;;8.78;51.34;100929.72;5010486;28;20038;-71
2021/04/02 02:04:09;;;;;;;4.50;2.22;;;;;;;8.77;49.87;100934.16;5009101;28;20124;-70
2021/04/02 02:06:35;;;;;;;4.75;2.58;;;;;;;8.67;50.84;100923.53;5008452;28;20109;-71
2021/04/02 02:09:10;;;;;;;6.50;2.47;;;;;;;8.58;50.73;100929.59;5009579;28;20044;-70
2021/04/02 02:11:36;;;;;;;4.63;2.20;;;;;;;8.49;51.61;100925.09;5005092;28;20045;-71
2021/04/02 02:14:08;;;;;;;4.85;2.60;;;;;;;8.46;51.18;100925.34;5002076;28;20030;-70
2021/04/02 02:16:35;;;;;;;3.72;2.28;;;;;;;8.37;51.62;100931.38;5010822;28;20030;-70
2021/04/02 02:19:08;;;;;;;4.45;2.20;;;;;;;8.32;51.49;100931.75;5010720;28;20034;-71
2021/04/02 02:21:34;;;;;;;5.50;2.30;;;;;;;8.13;53.98;100931.56;5009285;28;20040;-70
2021/04/02 02:23:59;;;;;;;6.63;2.58;;;;;;;8.07;54.47;100939.00;5009942;28;20037;-71
2021/04/02 02:26:25;;;;;;;10.10;3.10;;;;;;;8.08;53.21;100934.59;5009154;28;20545;-71
2021/04/02 02:28:50;;;;;;;4.97;2.80;;;;;;;8.02;53.47;100938.56;5008459;28;20038;-71
2021/04/02 02:31:16;;;;;;;5.03;2.97;;;;;;;7.99;54.05;100935.34;4991200;28;20521;-72
2021/04/02 02:33:41;;;;;;;4.97;2.70;;;;;;;7.90;54.21;100944.00;5008408;28;20053;-70
2021/04/02 02:36:07;;;;;;;7.50;3.30;;;;;;;7.85;54.81;100936.47;5008399;28;20100;-70
2021/04/02 02:38:33;;;;;;;5.20;3.20;;;;;;;7.80;54.86;100936.00;5008983;28;20038;-70
2021/04/02 02:40:59;;;;;;;4.57;2.83;;;;;;;7.75;55.11;100935.53;5008440;28;20034;-71
2021/04/02 02:43:26;;;;;;;7.03;3.53;;;;;;;7.69;55.95;100939.47;5008983;28;20034;-71
2021/04/02 02:45:52;;;;;;;5.82;3.20;;;;;;;7.60;56.18;100942.84;4989318;28;20026;-70
2021/04/02 02:48:17;;;;;;;5.97;3.50;;;;;;;7.57;56.70;100941.28;5008290;28;20045;-69
2021/04/02 02:50:50;;;;;;;4.60;2.90;;;;;;;7.52;56.77;100943.47;5009596;28;20089;-71
2021/04/02 02:53:19;;;;;;;7.45;3.70;;;;;;;7.43;58.10;100942.38;4998035;28;20427;-70
2021/04/02 02:55:46;;;;;;;9.20;3.92;;;;;;;7.44;57.95;100941.44;5005545;28;20419;-70
2021/04/02 02:58:15;;;;;;;7.65;4.22;;;;;;;7.37;59.19;100937.63;4999113;28;20033;-70
2021/04/02 03:00:44;;;;;;;6.95;4.18;;;;;;;7.36;60.19;100943.81;5008917;28;20454;-70
2021/04/02 03:03:15;;;;;;;7.90;4.10;;;;;;;7.36;58.91;100941.19;5008033;28;20046;-71
2021/04/02 03:05:45;;;;;;;7.32;3.75;;;;;;;7.25;59.96;100943.03;5002019;28;20046;-70
2021/04/02 03:08:13;;;;;;;6.93;3.95;;;;;;;7.18;60.89;100943.50;5005140;28;20030;-70
2021/04/02 03:10:39;;;;;;;7.05;3.50;;;;;;;7.20;59.78;100940.75;4993230;28;20114;-70
2021/04/02 03:13:06;;;;;;;6.55;3.95;;;;;;;7.21;59.93;100943.25;5006704;28;20125;-71
2021/04/02 03:15:33;;;;;;;5.07;3.38;;;;;;;7.08;61.67;100937.28;5009462;28;20680;-70
2021/04/02 03:18:18;;;;;;;8.48;4.53;;;;;;;7.14;60.31;100941.22;5008605;28;20364;-71
2021/04/02 03:20:45;;;;;;;7.90;4.82;;;;;;;7.14;60.42;100934.16;5008698;28;20064;-70
2021/04/02 03:23:14;;;;;;;5.65;3.70;;;;;;;6.96;62.04;100944.31;5005633;28;20061;-71
2021/04/02 03:25:41;;;;;;;8.75;4.30;;;;;;;7.01;60.99;100933.44;5000978;28;20038;-71
2021/04/02 03:28:11;;;;;;;8.43;4.30;;;;;;;6.88;61.94;100936.16;5005177;28;20026;-72
2021/04/02 03:30:37;;;;;;;5.18;3.50;;;;;;;6.91;63.02;100940.34;5008486;28;20068;-70
2021/04/02 03:33:20;;;;;;;8.23;4.18;;;;;;;6.92;62.65;100936.78;5007309;28;20030;-72
2021/04/02 03:35:46;;;;;;;7.75;4.38;;;;;;;6.89;62.38;100947.50;5000386;28;20042;-70
2021/04/02 03:38:15;;;;;;;9.25;4.50;;;;;;;6.85;62.63;100946.09;5007997;28;20040;-70
2021/04/02 03:40:42;;;;;;;11.23;5.15;;;;;;;6.83;63.27;100948.00;5007729;28;20030;-70
2021/04/02 03:43:09;;;;;;;6.28;4.15;;;;;;;6.79;63.65;100948.25;4999339;28;20030;-69
2021/04/02 03:45:37;;;;;;;9.95;5.15;;;;;;;6.83;63.12;100943.56;5008388;28;20088;-70
2021/04/02 03:48:04;;;;;;;8.70;5.10;;;;;;;6.77;63.55;100944.06;5007065;28;20037;-70
2021/04/02 03:50:35;;;;;;;6.97;4.70;;;;;;;6.76;63.33;100943.19;5008753;28;20092;-70
2021/04/02 03:53:19;;;;;;;7.30;4.35;;;;;;;6.70;63.45;100940.22;5008529;28;20482;-71
2021/04/02 03:55:46;;;;;;;9.05;5.38;;;;;;;6.66;64.05;100939.59;5008551;28;20037;-72
2021/04/02 03:58:14;;;;;;;6.43;4.50;;;;;;;6.55;63.57;100939.56;5007197;28;20034;-71
2021/04/02 04:00:54;;;;;;;7.35;4.55;;;;;;;6.46;63.70;100950.75;5004936;28;20030;-71
2021/04/02 04:03:21;;;;;;;7.38;4.75;;;;;;;6.43;63.51;100948.38;5008298;28;20034;-71
2021/04/02 04:05:50;;;;;;;8.38;4.75;;;;;;;6.36;64.57;100953.25;5009757;28;20048;-71
2021/04/02 04:08:18;;;;;;;9.85;5.20;;;;;;;6.36;63.78;100951.47;5007909;28;20203;-70
2021/04/02 04:10:45;;;;;;;6.25;4.47;;;;;;;6.27;64.68;100953.91;4991488;28;20046;-70
2021/04/02 04:13:13;;;;;;;8.00;5.03;;;;;;;6.23;64.33;100950.69;5009390;28;20038;-70
2021/04/02 04:15:41;;;;;;;8.52;5.18;;;;;;;6.21;64.77;100946.50;5011708;28;20034;-71
2021/04/02 04:18:09;;;;;;;5.70;4.13;;;;;;;6.12;66.93;100959.34;5011440;28;20029;-71
2021/04/02 04:20:36;;;;;;;9.30;5.70;;;;;;;6.20;66.22;100950.06;5011674;28;20037;-70
2021/04/02 04:23:01;;;;;;;8.65;5.22;;;;;;;6.21;65.44;100959.66;4996434;28;20038;-71
2021/04/02 04:25:27;;;;;;;7.65;5.45;;;;;;;6.13;65.51;100955.78;5012178;28;20564;-72
2021/04/02 04:27:55;;;;;;;10.90;6.25;;;;;;;6.13;65.88;100958.41;5011549;28;20037;-70
2021/04/02 04:30:22;;;;;;;8.95;4.68;;;;;;;6.07;67.53;100961.47;4992379;28;20034;-71
2021/04/02 04:32:49;;;;;;;11.10;6.00;;;;;;;6.13;66.05;100957.59;4986995;28;20043;-70
2021/04/02 04:35:17;;;;;;;10.25;5.30;;;;;;;6.05;66.46;100958.13;5003207;28;20029;-70
2021/04/02 04:37:44;;;;;;;7.90;5.32;;;;;;;6.01;67.35;100959.31;5009038;28;20041;-70
2021/04/02 04:40:13;;;;;;;8.27;5.13;;;;;;;6.03;66.22;100961.81;5011276;28;20022;-72
2021/04/02 04:42:40;;;;;;;8.00;5.28;;;;;;;6.04;66.85;100964.34;5003177;28;20522;-70
2021/04/02 04:45:07;;;;;;;9.98;4.97;;;;;;;6.04;66.38;100972.22;5010946;28;20034;-70
2021/04/02 04:47:33;;;;;;;6.97;4.80;;;;;;;5.99;67.17;100971.72;5011661;28;20034;-73
2021/04/02 04:49:59;;;;;;;9.00;5.90;;;;;;;5.98;66.98;100964.78;5011184;28;20439;-71
2021/04/02 04:52:27;;;;;;;8.32;5.15;;;;;;;5.93;67.78;100966.88;5011041;28;20037;-72
2021/04/02 04:54:54;;;;;;;7.90;5.05;;;;;;;5.94;66.84;100966.78;5009730;28;20042;-72
2021/04/02 04:57:20;;;;;;;10.27;6.30;;;;;;;5.93;67.38;100974.75;5011219;28;20049;-72
2021/04/02 04:59:49;;;;;;;7.50;5.20;;;;;;;5.88;70.36;100977.69;5010920;28;20487;-71
2021/04/02 05:02:16;;;;;;;6.65;4.38;;;;;;;5.90;68.46;100973.19;5013121;28;20088;-70
2021/04/02 05:04:43;;;;;;;8.57;5.07;;;;;;;5.97;66.88;100967.53;5007218;28;20055;-71
2021/04/02 05:07:10;;;;;;;9.60;5.85;;;;;;;5.92;67.78;100965.19;5004390;28;20594;-70
2021/04/02 05:09:38;;;;;;;7.05;5.22;;;;;;;5.94;67.46;100971.22;5004186;28;20381;-70
2021/04/02 05:12:06;;;;;;;8.52;5.60;;;;;;;5.93;67.48;100966.88;5006722;28;20033;-70
2021/04/02 05:14:34;;;;;;;8.30;5.68;;;;;;;5.96;67.83;100974.56;5005212;28;20530;-71
2021/04/02 05:17:00;;;;;;;9.55;5.63;;;;;;;5.92;68.53;100976.53;5007009;28;20030;-69
2021/04/02 05:19:26;;;;;;;7.88;5.43;;;;;;;5.88;69.45;100980.31;5011052;28;20120;-70
2021/04/02 05:21:51;;;;;;;11.30;7.10;;;;;;;5.90;67.99;100986.31;5008281;28;20402;-70
2021/04/02 05:24:16;;;;;;;11.40;6.28;;;;;;;5.89;69.05;100986.44;5010635;28;20032;-71
2021/04/02 05:26:42;;;;;;;12.57;7.05;;;;;;;5.93;67.80;100983.47;5010804;28;20041;-72
2021/04/02 05:29:08;;;;;;;8.35;5.45;;;;;;;5.87;69.76;100988.31;5008038;28;20455;-70
2021/04/02 05:31:33;;;;;;;10.70;5.90;;;;;;;5.89;69.43;100979.38;4996398;28;20120;-71
2021/04/02 05:33:59;;;;;;;8.45;6.03;;;;;;;5.95;68.53;100986.00;5002880;28;20045;-70
2021/04/02 05:36:25;;;;;;;11.48;7.10;;;;;;;5.94;68.32;100985.16;5010263;28;20041;-71
2021/04/02 05:38:50;;;;;;;9.32;5.95;;;;;;;5.95;69.50;100988.63;5010353;28;20376;-72
2021/04/02 05:41:22;;;;;;;9.85;6.80;;;;;;;5.94;68.99;100989.59;5007327;28;20038;-69
2021/04/02 05:43:54;;;;;;;8.45;6.00;;;;;;;5.97;69.78;100991.16;5009109;28;20033;-72
2021/04/02 05:46:23;;;;;;;9.82;6.65;;;;;;;6.03;68.55;100991.56;5007059;28;20097;-72
2021/04/02 05:48:59;;;;;;;11.05;7.07;;;;;;;6.07;69.35;100998.22;5005540;28;20398;-73
2021/04/02 05:51:26;;;;;;;12.40;7.75;;;;;;;6.15;68.53;100995.91;5010331;28;20037;-70
2021/04/02 05:53:52;;;;;;;13.90;9.63;;;;;;;6.23;68.46;101010.28;4996651;28;20030;-70
2021/04/02 05:56:18;;;;;;;11.18;7.65;;;;;;;6.18;68.92;101010.59;5006531;28;20041;-71
2021/04/02 05:58:44;;;;;;;10.77;7.22;;;;;;;6.26;68.35;101005.63;5003029;28;20458;-70
2021/04/02 06:01:10;;;;;;;9.45;6.93;;;;;;;6.38;68.13;101003.88;5005956;28;20194;-70
2021/04/02 06:03:35;;;;;;;13.10;7.32;;;;;;;6.74;68.14;101013.44;5010181;28;20041;-71
2021/04/02 06:06:00;;;;;;;12.77;7.80;;;;;;;7.20;67.66;101015.22;5009493;28;20049;-70
2021/04/02 06:08:27;;;;;;;8.60;5.72;;;;;;;7.91;66.30;101014.13;5001141;28;20060;-70
2021/04/02 06:10:52;;;;;;;9.48;5.72;;;;;;;8.49;65.04;101014.72;5006663;28;20116;-71
2021/04/02 06:13:18;;;;;;;8.10;4.95;;;;;;;9.08;62.52;101016.78;5007027;28;20161;-71
2021/04/02 06:15:44;;;;;;;8.02;5.28;;;;;;;9.62;60.21;101013.97;5006730;28;20144;-70
2021/04/02 06:18:10;;;;;;;9.07;5.38;;;;;;;9.99;59.81;101019.50;5006607;28;20035;-70
2021/04/02 06:20:39;;;;;;;7.63;5.82;;;;;;;10.49;58.38;101016.00;5003602;28;20057;-69
2021/04/02 06:23:27;;;;;;;9.75;6.80;;;;;;;10.41;54.70;101017.50;5009901;28;20056;-69
2021/04/02 06:25:56;;;;;;;6.97;5.32;;;;;;;9.99;57.00;101020.34;4990917;28;20141;-69
2021/04/02 06:28:23;;;;;;;8.02;4.80;;;;;;;10.72;57.05;101027.94;5008728;28;20468;-69
2021/04/02 06:31:02;;;;;;;6.95;4.63;;;;;;;10.98;55.15;101030.00;4991071;28;20046;-69
2021/04/02 06:33:33;;;;;;;7.10;4.32;;;;;;;11.59;53.13;101039.31;5003205;28;20041;-70
2021/04/02 06:35:58;;;;;;;;;;;;;;;12.25;51.76;101039.13;5006174;28;20030;-72
2021/04/02 06:38:31;;;;;;;8.20;4.57;;;;;;;12.42;51.76;101029.50;4999017;28;19932;-70
2021/04/02 06:41:03;;;;;;;6.22;4.25;;;;;;;12.51;50.51;101030.38;5009041;28;20045;-71
2021/04/02 06:43:40;;;;;;;6.93;4.95;;;;;;;12.66;48.60;101036.84;5002881;28;20080;-72
2021/04/02 06:46:09;;;;;;;7.05;4.30;;;;;;;12.93;48.87;101030.56;5008056;28;20050;-72
2021/04/02 06:48:35;;;;;;;6.93;3.92;;;;;;;13.23;50.39;101035.56;5003731;28;20038;-70
2021/04/02 06:51:00;;;;;;;8.13;5.13;;;;;;;12.85;48.74;101037.66;5009331;28;20057;-70
2021/04/02 06:53:26;;;;;;;5.55;4.30;;;;;;;12.70;48.91;101035.56;5009973;28;20022;-70
2021/04/02 06:55:52;;;;;;;5.60;4.25;;;;;;;13.23;47.48;101035.56;5003793;28;20034;-69
2021/04/02 06:58:21;;;;;;;7.68;4.80;;;;;;;13.52;48.02;101030.81;5008640;28;20038;-72
2021/04/02 07:00:49;;;;;;;6.05;5.00;;;;;;;13.20;47.16;101038.56;5008073;28;20088;-70
2021/04/02 07:03:16;;;;;;;5.93;4.75;;;;;;;13.11;46.55;101033.19;5008457;28;20038;-70
2021/04/02 07:05:43;;;;;;;6.68;4.05;;;;;;;12.41;49.74;101040.25;5006908;28;20092;-70
2021/04/02 07:08:14;;;;;;;6.35;4.13;;;;;;;13.40;47.30;101031.25;5006944;28;20124;-70
2021/04/02 07:10:40;;;;;;;6.53;5.10;;;;;;;13.84;46.23;101031.09;5008646;28;20410;-71
2021/04/02 07:13:07;;;;;;;4.68;4.00;;;;;;;13.89;43.70;101031.44;5009210;28;20038;-70
2021/04/02 07:15:35;;;;;;;5.25;3.58;;;;;;;14.24;44.04;101033.88;5003491;28;20062;-74
2021/04/02 07:18:03;;;;;;;6.75;4.82;;;;;;;14.57;43.33;101033.13;5007143;28;20037;-70
2021/04/02 07:20:29;;;;;;;5.75;4.72;;;;;;;13.99;43.22;101027.69;5008357;28;20072;-70
2021/04/02 07:22:55;;;;;;;7.10;4.18;;;;;;;14.27;42.69;101032.72;5008125;28;20487;-69
2021/04/02 07:25:21;;;;;;;6.68;4.90;;;;;;;14.89;42.93;101031.44;5008962;28;20037;-70
2021/04/02 07:27:46;;;;;;;5.90;4.40;;;;;;;14.78;41.51;101028.13;5009048;28;20480;-69
2021/04/02 07:30:13;;;;;;;5.15;4.15;;;;;;;14.37;43.00;101038.72;5008256;28;20053;-72
2021/04/02 07:32:41;;;;;;;4.43;3.10;;;;;;;15.24;42.54;101033.72;5003914;28;20057;-71
2021/04/02 07:35:14;;;;;;;6.57;4.55;;;;;;;16.40;39.78;101034.06;5004940;28;20030;-70
2021/04/02 07:37:39;;;;;;;4.55;4.03;;;;;;;16.21;38.95;101033.53;5009290;28;20395;-71
2021/04/02 07:40:10;;;;;;;6.50;4.25;;;;;;;16.08;38.98;101038.59;5005995;28;20041;-71
2021/04/02 07:42:36;;;;;;;5.90;4.50;;;;;;;15.88;39.10;101041.72;5010116;28;20042;-72
2021/04/02 07:45:03;;;;;;;6.03;4.45;;;;;;;15.82;38.98;101038.91;5012181;28;20038;-70
2021/04/02 07:47:28;;;;;;;5.65;4.90;;;;;;;16.02;38.10;101036.66;5012401;28;20057;-71
2021/04/02 07:50:02;;;;;;;5.15;4.00;;;;;;;15.75;37.35;101040.59;4995891;28;20453;-70
2021/04/02 07:52:40;;;;;;;5.95;4.18;;;;;;;16.19;37.35;101032.88;5004701;28;20458;-73
2021/04/02 07:55:15;;;;;;;4.80;4.13;;;;;;;16.44;36.78;101043.38;5010974;28;20111;-70
2021/04/02 07:57:53;;;;;;;5.00;4.05;;;;;;;16.54;37.75;101041.31;5012496;28;20426;-70
2021/04/02 08:00:23;;;;;;;5.53;4.18;;;;;;;16.41;38.02;101041.06;5004329;28;20034;-71
2021/04/02 08:03:06;;;;;;;5.25;4.75;;;;;;;17.03;35.23;101040.09;5011845;28;20088;-70
2021/04/02 08:05:31;;;;;;;4.30;3.65;;;;;;;16.50;36.49;101034.69;5005941;28;20041;-73
2021/04/02 08:07:57;;;;;;;5.72;4.40;;;;;;;17.10;35.94;101033.84;5009981;28;20100;-70
2021/04/02 08:10:23;;;;;;;4.93;4.18;;;;;;;16.95;35.88;101033.00;5011616;28;20553;-70
2021/04/02 08:12:48;;;;;;;5.50;4.38;;;;;;;17.10;35.91;101036.53;5011447;28;20065;-71
2021/04/02 08:15:17;;;;;;;5.45;3.75;;;;;;;17.30;34.89;101035.97;5005528;28;20041;-70
2021/04/02 08:17:44;;;;;;;5.45;3.78;;;;;;;17.52;35.21;101029.72;5012259;28;20302;-72
2021/04/02 08:20:10;;;;;;;5.55;4.78;;;;;;;17.94;33.82;101033.56;5007408;28;20117;-73
2021/04/02 08:22:36;;;;;;;4.28;3.85;;;;;;;17.74;33.35;101037.84;5008484;28;20479;-71
2021/04/02 08:25:06;;;;;;;5.70;4.35;;;;;;;17.92;33.12;101040.94;5010048;28;20046;-73
2021/04/02 08:27:32;;;;;;;4.30;3.90;;;;;;;18.20;33.28;101041.06;5010301;28;20029;-70
2021/04/02 08:30:03;;;;;;;5.85;4.47;;;;;;;18.07;32.36;101038.25;5007162;28;20037;-71
2021/04/02 08:32:32;;;;;;;6.10;4.25;;;;;;;17.96;32.44;101034.22;5003797;28;20301;-71
2021/04/02 08:34:58;;;;;;;4.20;3.75;;;;;;;17.98;33.38;101040.22;5012147;28;20968;-71
2021/04/02 08:37:23;;;;;;;5.70;4.90;;;;;;;18.57;31.48;101039.19;5011447;28;20037;-71
2021/04/02 08:39:52;;;;;;;5.05;4.55;;;;;;;18.95;31.14;101046.13;5012032;28;20030;-72
2021/04/02 08:42:18;;;;;;;6.47;4.93;;;;;;;18.84;30.76;101060.88;5011723;28;20705;-70
2021/04/02 08:44:45;;;;;;;4.95;4.45;;;;;;;18.04;31.53;101046.66;5011693;28;20117;-70
2021/04/02 08:47:15;;;;;;;5.82;5.20;;;;;;;18.06;32.00;101049.16;5007063;28;20038;-74
2021/04/02 08:49:51;;;;;;;5.53;4.95;;;;;;;18.22;31.96;101041.72;5011538;28;20863;-74
2021/04/02 08:52:28;;;;;;;4.72;4.07;;;;;;;18.77;31.83;101054.66;5009141;28;20038;-71
2021/04/02 08:54:55;;;;;;;4.88;4.32;;;;;;;18.91;30.91;101044.88;5011210;28;20120;-70
2021/04/02 08:57:24;;;;;;;5.45;4.63;;;;;;;17.73;32.34;101041.50;5010789;28;20125;-72
2021/04/02 08:59:50;;;;;;;5.72;4.13;;;;;;;17.92;32.21;101040.94;5010960;28;20033;-71
2021/04/02 09:02:16;;;;;;;5.90;4.60;;;;;;;17.39;32.17;101040.22;4999568;28;20039;-70
2021/04/02 09:04:43;;;;;;;4.78;4.25;;;;;;;16.00;35.21;101044.00;4999750;28;20042;-70
2021/04/02 09:07:09;;;;;;;5.30;4.65;;;;;;;16.28;35.48;101047.84;4997726;28;20120;-71
2021/04/02 09:09:34;;;;;;;5.43;4.68;;;;;;;16.09;35.18;101045.63;5002336;28;20030;-71
2021/04/02 09:12:13;;;;;;;6.03;5.07;;;;;;;15.68;35.50;101045.75;5004981;28;20034;-69
2021/04/02 09:14:56;;;;;;;5.55;4.88;;;;;;;15.16;36.52;101035.56;5009976;28;20398;-70
2021/04/02 09:17:24;;;;;;;9.40;5.57;;;;;;;14.70;36.97;101036.09;5010422;28;20034;-71
2021/04/02 09:19:51;;;;;;;6.97;5.20;;;;;;;14.19;38.07;101033.53;5010650;28;20391;-70
2021/04/02 09:22:17;;;;;;;6.22;5.03;;;;;;;14.65;38.04;101041.94;4982205;28;20053;-69
2021/04/02 09:24:44;;;;;;;6.53;5.10;;;;;;;15.57;35.66;101044.31;5006467;28;20038;-71
2021/04/02 09:27:12;;;;;;;9.98;5.80;;;;;;;16.03;35.14;101033.78;4993001;28;20065;-70
2021/04/02 09:29:37;;;;;;;5.63;4.10;;;;;;;16.36;35.20;101033.59;5010283;28;20046;-70
2021/04/02 09:32:04;;;;;;;5.68;4.65;;;;;;;16.70;34.44;101041.19;5004828;28;20032;-71
2021/04/02 09:34:30;;;;;;;5.15;4.47;;;;;;;16.61;34.57;101047.59;5011064;28;20422;-70
2021/04/02 09:36:57;;;;;;;6.25;4.40;;;;;;;16.09;35.24;101045.63;5002476;28;20533;-69
2021/04/02 09:39:29;;;;;;;5.32;4.22;;;;;;;15.62;35.86;101033.13;4992979;28;20044;-70
2021/04/02 09:41:58;;;;;;;5.80;5.13;;;;;;;16.01;34.98;101037.66;5009504;28;20088;-71
2021/04/02 09:44:26;;;;;;;4.80;4.30;;;;;;;15.36;36.36;101036.03;4993978;28;20061;-73
2021/04/02 09:47:01;;;;;;;6.82;5.85;;;;;;;15.11;36.60;101024.59;5009729;28;20117;-69
2021/04/02 09:49:26;;;;;;;6.53;5.40;;;;;;;14.57;39.12;101022.47;5006281;28;20490;-72
2021/04/02 09:51:54;;;;;;;4.90;4.18;;;;;;;14.27;39.39;101034.53;5011890;28;20121;-69
2021/04/02 09:54:21;;;;;;;5.22;3.88;;;;;;;14.70;38.64;101037.94;5010308;28;20034;-70
2021/04/02 09:56:48;;;;;;;6.13;4.85;;;;;;;14.77;40.71;101036.28;5010681;28;20046;-71
2021/04/02 09:59:14;;;;;;;4.55;4.00;;;;;;;14.78;39.20;101028.13;5007391;28;20403;-72
2021/04/02 10:01:41;;;;;;;5.47;4.57;;;;;;;14.85;38.36;101036.28;5003454;28;20121;-73
2021/04/02 10:04:08;;;;;;;5.72;4.30;;;;;;;14.98;38.09;101033.94;4989519;28;20084;-70
2021/04/02 10:06:35;;;;;;;5.88;3.90;;;;;;;15.60;37.48;101037.78;4992282;28;20104;-70
2021/04/02 10:09:01;;;;;;;5.78;4.53;;;;;;;15.69;36.92;101042.94;5007057;28;20057;-71
2021/04/02 10:11:26;;;;;;;5.90;4.63;;;;;;;15.44;36.95;101036.81;5005400;28;20031;-69
2021/04/02 10:13:53;;;;;;;5.43;4.90;;;;;;;15.48;36.72;101032.00;5006220;28;20045;-74
2021/04/02 10:16:20;;;;;;;5.57;4.45;;;;;;;14.69;38.42;101030.97;4991542;28;20037;-71
2021/04/02 10:18:48;;;;;;;5.38;4.38;;;;;;;14.30;38.87;101019.09;5010204;28;20030;-69
2021/04/02 10:21:13;;;;;;;5.75;4.47;;;;;;;14.23;39.76;101023.41;5005959;28;20104;-70
2021/04/02 10:23:39;;;;;;;5.15;4.20;;;;;;;14.05;40.50;101020.03;4992199;28;20033;-70
2021/04/02 10:26:04;;;;;;;6.75;5.70;;;;;;;14.45;38.76;101016.63;4992349;28;20038;-72
2021/04/02 10:28:31;;;;;;;4.78;3.83;;;;;;;13.89;40.50;101018.16;4991590;28;20038;-69
2021/04/02 10:30:57;;;;;;;5.13;4.50;;;;;;;14.29;39.15;101013.94;5009540;28;20100;-71
2021/04/02 10:33:22;;;;;;;7.53;4.88;;;;;;;14.30;39.28;101013.78;5003813;28;20025;-73
2021/04/02 10:35:48;;;;;;;6.82;5.60;;;;;;;14.17;39.49;101008.09;5010124;28;20522;-71
2021/04/02 10:38:13;;;;;;;6.05;4.63;;;;;;;13.72;40.31;101010.13;5005389;28;20031;-72
2021/04/02 10:40:39;;;;;;;6.82;5.82;;;;;;;13.75;39.34;101009.81;5008234;28;20040;-71
2021/04/02 10:43:05;;;;;;;6.93;5.82;;;;;;;13.49;40.27;101009.88;5009621;28;20041;-70
2021/04/02 10:45:31;;;;;;;6.70;5.30;;;;;;;13.40;39.80;101010.81;5010092;28;20040;-72
2021/04/02 10:47:56;;;;;;;6.20;3.75;;;;;;;12.90;42.06;101003.53;5011177;28;20030;-73
2021/04/02 10:50:26;;;;;;;4.80;4.03;;;;;;;13.17;41.58;101007.84;5009355;28;20037;-70
2021/04/02 10:52:52;;;;;;;8.23;4.72;;;;;;;13.37;40.39;101011.13;5007237;28;20030;-73
2021/04/02 10:55:18;;;;;;;5.53;4.32;;;;;;;13.36;42.40;101006.81;4991585;28;20072;-70
2021/04/02 10:57:44;;;;;;;3.85;3.45;;;;;;;13.82;40.50;101004.66;5009663;28;20077;-72
2021/04/02 11:00:13;;;;;;;5.45;4.50;;;;;;;13.89;40.04;101002.19;4998605;28;20026;-71
2021/04/02 11:02:38;;;;;;;6.05;4.35;;;;;;;13.80;41.66;101004.03;5005584;28;20533;-70
2021/04/02 11:05:06;;;;;;;6.03;4.90;;;;;;;13.49;43.28;101001.06;5008242;28;20043;-73
2021/04/02 11:07:31;;;;;;;5.60;4.47;;;;;;;13.66;41.07;100996.63;5003667;28;20039;-72
2021/04/02 11:09:57;;;;;;;6.35;4.72;;;;;;;13.45;42.19;100997.06;5009078;28;20042;-73
2021/04/02 11:12:28;;;;;;;5.05;3.72;;;;;;;13.56;42.05;100979.03;5006017;28;20038;-71
2021/04/02 11:14:54;;;;;;;;;;;;;;;13.90;40.60;100995.91;4991077;28;20187;-71
2021/04/02 11:17:19;;;;;;;5.40;4.40;;;;;;;13.58;41.09;100997.44;5009095;28;20004;-71
2021/04/02 11:19:45;;;;;;;6.50;4.90;;;;;;;13.49;41.59;100990.41;5009464;28;20030;-76
2021/04/02 11:22:11;;;;;;;6.57;4.50;;;;;;;13.41;42.72;100990.41;5000376;28;20034;-72
2021/04/02 11:24:36;;;;;;;4.65;3.90;;;;;;;13.46;41.41;100990.75;5007871;28;20034;-71
2021/04/02 11:27:03;;;;;;;4.20;3.67;;;;;;;13.36;41.57;100989.03;4999587;28;20495;-71
2021/04/02 11:29:29;;;;;;;5.13;3.53;;;;;;;13.41;41.57;100993.06;5005494;28;20305;-69
2021/04/02 11:31:54;;;;;;;4.60;3.85;;;;;;;13.52;41.47;100988.28;5009048;28;20034;-72
2021/04/02 11:34:20;;;;;;;4.32;3.03;;;;;;;13.61;40.96;100991.81;5009303;28;20037;-70